Time;durP1;ratioP1;P1;durP2;ratioP2;P2;SDS_P1;SDS_P2;PMS_P1;PMS_P2;Temp;Humidity;BMP_temperature;BMP_pressure;BME280_temperature;BME280_humidity;BME280_pressure;Samples;Min_cycle;Max_cycle;Signal;HPM_P1;HPM_P2
2022/03/08 00:01:59;;;;;;;;;1.00;1.00;;;;;0.31;52.37;100752.09;5116149;28;8840;-64
2022/03/08 00:04:27;;;;;;;;;3.00;3.00;;;;;0.37;52.57;100753.69;5116297;28;8832;-65
2022/03/08 00:06:55;;;;;;;;;7.40;5.20;;;;;0.44;52.52;100755.25;5115760;28;8970;-65
2022/03/08 00:09:23;;;;;;;;;3.60;3.60;;;;;0.48;52.14;100747.28;5121671;27;8957;-64
2022/03/08 00:11:51;;;;;;;;;3.00;3.00;;;;;0.53;52.77;100757.66;5136753;27;8960;-64
2022/03/08 00:14:19;;;;;;;;;0.60;0.60;;;;;0.58;52.22;100756.63;5136568;27;8835;-64
2022/03/08 00:16:46;;;;;;;;;3.80;3.80;;;;;0.67;52.12;100753.75;5138012;27;8840;-65
2022/03/08 00:19:15;;;;;;;;;3.80;3.20;;;;;0.77;52.40;100746.53;5138264;27;8921;-69
2022/03/08 00:21:43;;;;;;;;;6.40;6.00;;;;;0.85;52.31;100741.94;5138376;27;8830;-66
2022/03/08 00:24:12;;;;;;;;;3.60;3.00;;;;;0.92;52.01;100739.06;5138117;27;8860;-64
2022/03/08 00:26:40;;;;;;;;;5.20;5.20;;;;;0.90;52.28;100735.66;5136602;27;8849;-65
2022/03/08 00:29:08;;;;;;;;;1.80;1.80;;;;;0.85;52.44;100721.78;5137968;27;8967;-65
2022/03/08 00:31:35;;;;;;;;;5.20;4.00;;;;;0.80;52.46;100721.09;5137976;27;8826;-65
2022/03/08 00:34:04;;;;;;;;;4.00;4.00;;;;;0.74;51.84;100721.25;5137178;27;9586;-65
2022/03/08 00:36:31;;;;;;;;;5.00;5.00;;;;;0.71;52.46;100729.19;5138338;27;8829;-64
2022/03/08 00:38:59;;;;;;;;;7.00;6.00;;;;;0.69;52.71;100732.78;5134942;27;8829;-65
2022/03/08 00:41:27;;;;;;;;;5.20;3.80;;;;;0.65;52.63;100728.50;5117019;28;8835;-66
2022/03/08 00:43:55;;;;;;;;;3.00;3.00;;;;;0.61;53.44;100737.34;5117272;28;8855;-68
2022/03/08 00:46:22;;;;;;;;;5.60;4.00;;;;;0.57;53.14;100728.72;5116389;28;9493;-65
2022/03/08 00:48:51;;;;;;;;;4.00;3.80;;;;;0.56;53.02;100734.88;5117376;28;8828;-64
2022/03/08 00:51:19;;;;;;;;;5.60;5.20;;;;;0.56;53.39;100724.38;5117229;28;8872;-64
2022/03/08 00:53:48;;;;;;;;;4.00;4.00;;;;;0.56;52.93;100719.16;5117120;28;8824;-64
2022/03/08 00:56:16;;;;;;;;;3.00;3.00;;;;;0.58;52.75;100714.72;5117808;28;9614;-66
2022/03/08 00:58:44;;;;;;;;;2.40;2.40;;;;;0.59;53.36;100708.56;5117021;28;8954;-65
2022/03/08 01:01:11;;;;;;;;;3.60;3.00;;;;;0.56;52.85;100703.44;5117285;28;8828;-66
2022/03/08 01:03:39;;;;;;;;;4.80;4.00;;;;;0.51;53.25;100707.91;5117434;28;8889;-64
2022/03/08 01:06:07;;;;;;;;;4.00;3.40;;;;;0.46;53.77;100703.72;5116929;28;8827;-64
2022/03/08 01:08:35;;;;;;;;;6.20;4.00;;;;;0.41;53.49;100702.97;5116609;28;8982;-65
2022/03/08 01:11:03;;;;;;;;;5.60;3.20;;;;;0.33;53.32;100710.16;5136262;27;8925;-64
2022/03/08 01:13:31;;;;;;;;;6.40;6.20;;;;;0.28;53.55;100706.78;5137280;27;8830;-65
2022/03/08 01:15:59;;;;;;;;;6.40;6.20;;;;;0.21;53.28;100698.25;5137163;27;9510;-65
2022/03/08 01:18:28;;;;;;;;;6.00;6.00;;;;;0.17;53.57;100693.13;5136897;27;8839;-65
2022/03/08 01:20:55;;;;;;;;;3.80;3.80;;;;;0.13;53.60;100692.34;5137031;27;8872;-66
2022/03/08 01:23:23;;;;;;;;;4.00;4.00;;;;;0.10;53.72;100687.19;5135799;27;8826;-66
2022/03/08 01:25:50;;;;;;;;;4.00;4.00;;;;;0.06;54.07;100669.84;5135563;27;8944;-65
2022/03/08 01:28:19;;;;;;;;;3.60;3.60;;;;;0.03;53.95;100676.91;5135240;27;8848;-64
2022/03/08 01:30:47;;;;;;;;;3.20;1.40;;;;;0.02;53.65;100686.53;5135430;27;9809;-64
2022/03/08 01:33:15;;;;;;;;;3.40;3.40;;;;;-0.01;53.52;100678.75;5135280;27;8964;-65
2022/03/08 01:35:42;;;;;;;;;1.40;1.40;;;;;-0.05;54.04;100676.25;5132282;27;8856;-64
2022/03/08 01:38:10;;;;;;;;;6.00;4.80;;;;;-0.08;54.15;100677.19;5113898;28;8828;-67
2022/03/08 01:40:38;;;;;;;;;4.00;3.40;;;;;-0.09;53.93;100664.13;5114013;28;8816;-64
2022/03/08 01:43:06;;;;;;;;;6.40;6.00;;;;;-0.13;53.99;100671.19;5114103;28;8887;-65
2022/03/08 01:45:34;;;;;;;;;5.20;5.20;;;;;-0.13;54.12;100665.13;5114635;28;8964;-64
2022/03/08 01:48:03;;;;;;;;;1.80;1.80;;;;;-0.13;54.54;100666.88;5114263;28;8831;-64
2022/03/08 01:50:31;;;;;;;;;6.00;6.00;;;;;-0.13;54.02;100658.13;5114352;28;8857;-64
2022/03/08 01:52:59;;;;;;;;;3.00;3.00;;;;;-0.13;53.84;100659.03;5113953;28;8867;-64
2022/03/08 01:55:27;;;;;;;;;3.60;3.60;;;;;-0.13;53.93;100656.41;5114378;28;8870;-66
2022/03/08 01:57:54;;;;;;;;;6.00;5.60;;;;;-0.16;54.14;100654.72;5114137;28;8850;-65
2022/03/08 02:00:22;;;;;;;;;3.40;3.00;;;;;-0.16;53.90;100662.56;5114023;28;8842;-64
2022/03/08 02:02:50;;;;;;;;;5.60;4.00;;;;;-0.16;54.16;100657.34;5114890;28;8869;-65
2022/03/08 02:05:22;;;;;;;;;2.60;2.60;;;;;-0.17;54.47;100654.78;5115860;28;8823;-66
2022/03/08 02:07:50;;;;;;;;;3.40;3.00;;;;;-0.17;54.18;100652.16;5115364;27;8835;-65
2022/03/08 02:10:18;;;;;;;;;4.00;3.60;;;;;-0.19;54.22;100646.09;5115815;28;8827;-64
2022/03/08 02:12:46;;;;;;;;;3.00;0.40;;;;;-0.19;54.37;100646.09;5116047;28;8940;-64
2022/03/08 02:15:13;;;;;;;;;6.60;6.60;;;;;-0.20;54.12;100640.00;5115682;28;8832;-64
2022/03/08 02:17:41;;;;;;;;;3.60;3.60;;;;;-0.20;55.02;100641.75;5115825;28;8967;-66
2022/03/08 02:20:09;;;;;;;;;6.00;4.00;;;;;-0.23;54.52;100644.47;5115359;28;9686;-68
2022/03/08 02:22:37;;;;;;;;;6.20;6.20;;;;;-0.23;54.16;100639.22;5115742;28;8889;-64
2022/03/08 02:25:04;;;;;;;;;4.00;4.00;;;;;-0.23;54.83;100650.53;5114654;28;8844;-64
2022/03/08 02:27:32;;;;;;;;;4.40;4.40;;;;;-0.24;54.94;100640.97;5115501;28;8869;-64
2022/03/08 02:30:01;;;;;;;;;3.20;3.20;;;;;-0.24;54.36;100638.34;5115628;28;8870;-64
2022/03/08 02:32:29;;;;;;;;;6.20;6.20;;;;;-0.25;54.17;100641.88;5113454;28;8965;-64
2022/03/08 02:34:56;;;;;;;;;2.00;2.00;;;;;-0.27;54.51;100645.41;5110884;28;8870;-65
2022/03/08 02:37:24;;;;;;;;;4.00;4.00;;;;;-0.33;54.63;100638.59;5130693;27;8834;-64
2022/03/08 02:39:54;;;;;;;;;6.20;6.20;;;;;-0.39;54.76;100646.56;5135896;27;9626;-65
2022/03/08 02:42:21;;;;;;;;;4.40;3.80;;;;;-0.45;54.86;100644.13;5135720;27;8957;-64
2022/03/08 02:44:49;;;;;;;;;6.20;5.20;;;;;-0.49;54.98;100652.94;5135887;27;8960;-64
2022/03/08 02:47:17;;;;;;;;;6.40;6.00;;;;;-0.48;55.64;100656.44;5134812;27;8830;-65
2022/03/08 02:49:45;;;;;;;;;4.40;3.20;;;;;-0.50;54.71;100660.81;5134766;27;8810;-64
2022/03/08 02:52:12;;;;;;;;;4.00;3.60;;;;;-0.55;55.27;100647.00;5135492;27;8858;-64
2022/03/08 02:54:40;;;;;;;;;4.00;4.00;;;;;-0.60;55.02;100644.50;5135510;27;8822;-65
2022/03/08 02:57:08;;;;;;;;;6.00;6.00;;;;;-0.64;55.38;100648.06;5133799;27;8818;-64
2022/03/08 02:59:36;;;;;;;;;3.00;3.00;;;;;-0.68;55.63;100656.03;5135682;27;8825;-64
2022/03/08 03:02:03;;;;;;;;;5.60;5.60;;;;;-0.74;55.58;100651.81;5135810;27;8944;-64
2022/03/08 03:04:32;;;;;;;;;3.80;2.60;;;;;-0.78;55.44;100651.91;5136011;27;8846;-64
2022/03/08 03:06:59;;;;;;;;;6.20;6.00;;;;;-0.80;55.51;100653.66;5135696;27;8955;-64
2022/03/08 03:09:27;;;;;;;;;1.00;1.00;;;;;-0.83;55.31;100651.13;5135467;27;8866;-65
2022/03/08 03:11:55;;;;;;;;;3.80;3.80;;;;;-0.85;55.46;100653.78;5135773;27;8971;-64
2022/03/08 03:14:23;;;;;;;;;4.40;3.60;;;;;-0.87;55.45;100649.47;5135891;27;8899;-65
2022/03/08 03:16:50;;;;;;;;;5.20;5.20;;;;;-0.88;55.51;100645.16;5134812;27;8825;-64
2022/03/08 03:19:18;;;;;;;;;3.40;3.00;;;;;-0.88;55.78;100639.91;5133810;27;8939;-64
2022/03/08 03:21:46;;;;;;;;;1.40;1.40;;;;;-0.90;55.55;100639.09;5133785;27;8996;-64
2022/03/08 03:24:14;;;;;;;;;3.20;3.20;;;;;-0.92;55.39;100640.91;5135031;27;8891;-65
2022/03/08 03:26:41;;;;;;;;;7.00;7.00;;;;;-0.93;55.54;100640.03;5129091;28;8850;-64
2022/03/08 03:29:09;;;;;;;;;3.00;2.60;;;;;-0.95;56.08;100633.97;5114550;28;8840;-64
2022/03/08 03:31:37;;;;;;;;;5.20;4.00;;;;;-0.96;55.50;100632.25;5114673;28;8939;-64
2022/03/08 03:34:05;;;;;;;;;1.00;1.00;;;;;-0.97;55.99;100627.94;5115085;28;8851;-64
2022/03/08 03:36:32;;;;;;;;;6.20;5.20;;;;;-0.96;55.59;100623.56;5118026;28;8982;-64
2022/03/08 03:39:00;;;;;;;;;3.60;3.60;;;;;-0.97;56.07;100625.31;5118757;28;8827;-64
2022/03/08 03:41:28;;;;;;;;;3.20;3.00;;;;;-0.99;55.37;100615.78;5118562;28;9505;-64
2022/03/08 03:43:56;;;;;;;;;4.40;4.00;;;;;-1.00;56.09;100612.31;5118602;28;8879;-68
2022/03/08 03:46:23;;;;;;;;;3.00;3.00;;;;;-1.01;55.83;100610.59;5118757;28;8836;-65
2022/03/08 03:48:51;;;;;;;;;3.20;3.20;;;;;-1.02;56.04;100614.09;5118542;28;8912;-64
2022/03/08 03:51:19;;;;;;;;;6.80;6.80;;;;;-1.02;55.85;100611.50;5118923;28;8835;-64
2022/03/08 03:53:47;;;;;;;;;5.60;4.40;;;;;-1.00;55.50;100619.31;5118021;28;9547;-64
2022/03/08 03:56:14;;;;;;;;;4.00;4.00;;;;;-1.01;55.82;100612.38;5119714;27;8819;-64
2022/03/08 03:58:44;;;;;;;;;6.00;4.40;;;;;-1.00;55.92;100614.09;5139288;27;8956;-64
2022/03/08 04:01:11;;;;;;;;;4.00;3.80;;;;;-1.02;55.71;100619.34;5139250;27;8829;-64
2022/03/08 04:03:39;;;;;;;;;3.60;3.00;;;;;-1.02;56.38;100623.69;5138422;27;8848;-65
2022/03/08 04:06:07;;;;;;;;;4.40;3.40;;;;;-1.00;55.88;100612.31;5138603;27;8845;-64
2022/03/08 04:08:35;;;;;;;;;1.00;1.00;;;;;-1.00;55.93;100619.31;5138305;27;8862;-64
2022/03/08 04:11:07;;;;;;;;;3.00;3.00;;;;;-1.01;55.73;100617.59;5138714;27;8854;-64
2022/03/08 04:13:35;;;;;;;;;3.40;3.00;;;;;-1.03;55.86;100615.00;5138998;27;9518;-64
2022/03/08 04:16:03;;;;;;;;;4.20;4.20;;;;;-1.07;56.08;100615.13;5138109;27;8845;-64
2022/03/08 04:18:31;;;;;;;;;2.20;2.20;;;;;-1.08;55.99;100616.00;5138379;27;8818;-64
2022/03/08 04:20:59;;;;;;;;;5.20;3.60;;;;;-1.09;56.06;100614.25;5138335;27;8832;-64
2022/03/08 04:23:27;;;;;;;;;5.40;5.20;;;;;-1.12;56.05;100610.00;5138260;27;8826;-65
2022/03/08 04:25:55;;;;;;;;;4.80;4.80;;;;;-1.15;56.09;100611.81;5138200;27;8951;-64
2022/03/08 04:28:23;;;;;;;;;2.60;2.20;;;;;-1.18;56.46;100611.84;5117793;27;8938;-64
2022/03/08 04:30:51;;;;;;;;;6.80;4.80;;;;;-1.20;56.14;100603.19;5116802;28;8846;-64
2022/03/08 04:33:18;;;;;;;;;1.00;1.00;;;;;-1.22;56.42;100605.84;5116285;28;8985;-64
2022/03/08 04:35:46;;;;;;;;;1.80;1.00;;;;;-1.25;56.34;100608.53;5117239;28;8827;-64
2022/03/08 04:38:14;;;;;;;;;6.20;6.20;;;;;-1.27;56.47;100614.66;5117662;28;8839;-65
2022/03/08 04:40:42;;;;;;;;;4.80;4.00;;;;;-1.30;56.72;100612.97;5117639;28;8935;-64
2022/03/08 04:43:10;;;;;;;;;4.80;4.00;;;;;-1.34;56.28;100616.56;5117815;28;8843;-64
2022/03/08 04:45:38;;;;;;;;;1.00;1.00;;;;;-1.35;56.35;100617.47;5117493;28;9652;-64
2022/03/08 04:48:06;;;;;;;;;5.80;5.80;;;;;-1.37;56.56;100605.31;5116341;28;8842;-64
2022/03/08 04:50:33;;;;;;;;;5.20;4.00;;;;;-1.37;56.71;100618.38;5117152;28;8978;-64
2022/03/08 04:53:01;;;;;;;;;1.00;1.00;;;;;-1.38;56.65;100603.59;5117223;28;8966;-64
2022/03/08 04:55:29;;;;;;;;;6.20;5.20;;;;;-1.38;56.41;100606.22;5116112;28;8850;-65
2022/03/08 04:57:56;;;;;;;;;4.40;4.40;;;;;-1.38;56.60;100612.28;5130644;27;8832;-64
2022/03/08 05:00:25;;;;;;;;;3.60;3.60;;;;;-1.36;56.86;100607.03;5136640;27;8821;-64
2022/03/08 05:02:53;;;;;;;;;5.60;5.60;;;;;-1.35;56.68;100598.31;5137620;27;8834;-64
2022/03/08 05:05:21;;;;;;;;;0.00;0.00;;;;;-1.35;56.61;100603.53;5137484;27;8826;-65
2022/03/08 05:07:48;;;;;;;;;3.80;3.20;;;;;-1.36;56.91;100617.47;5137026;27;8857;-64
2022/03/08 05:10:17;;;;;;;;;1.80;1.80;;;;;-1.38;56.27;100608.84;5136253;27;8838;-65
2022/03/08 05:12:46;;;;;;;;;4.40;4.40;;;;;-1.40;56.48;100611.47;5137250;27;8833;-64
2022/03/08 05:15:13;;;;;;;;;3.00;3.00;;;;;-1.42;56.97;100610.66;5136739;27;8955;-64
2022/03/08 05:17:41;;;;;;;;;3.80;3.20;;;;;-1.42;56.78;100617.59;5137135;27;8852;-64
2022/03/08 05:20:09;;;;;;;;;6.20;6.20;;;;;-1.44;56.54;100625.47;5137283;27;8979;-64
2022/03/08 05:22:37;;;;;;;;;3.80;3.80;;;;;-1.45;57.06;100617.69;5137049;27;8850;-63
2022/03/08 05:25:04;;;;;;;;;3.00;1.40;;;;;-1.46;57.04;100610.75;5137219;27;8838;-64
2022/03/08 05:27:33;;;;;;;;;4.40;4.20;;;;;-1.47;56.51;100609.00;5124623;27;8824;-64
2022/03/08 05:30:01;;;;;;;;;3.60;3.00;;;;;-1.46;56.98;100613.34;5116560;28;8958;-64
2022/03/08 05:32:28;;;;;;;;;4.00;3.40;;;;;-1.48;56.91;100605.53;5118106;27;8821;-64
2022/03/08 05:34:56;;;;;;;;;6.00;6.00;;;;;-1.46;56.70;100613.34;5136727;27;8838;-65
2022/03/08 05:37:24;;;;;;;;;4.00;3.80;;;;;-1.44;56.95;100612.41;5137213;27;8821;-64
2022/03/08 05:39:52;;;;;;;;;6.80;6.80;;;;;-1.43;57.16;100615.88;5136922;27;8837;-64
2022/03/08 05:42:20;;;;;;;;;3.00;3.00;;;;;-1.44;56.87;100619.41;5137364;27;8863;-64
2022/03/08 05:44:47;;;;;;;;;4.00;4.00;;;;;-1.45;56.61;100621.13;5136854;27;8826;-64
2022/03/08 05:47:15;;;;;;;;;4.80;4.80;;;;;-1.44;57.00;100620.22;5136356;27;8833;-68
2022/03/08 05:49:43;;;;;;;;;3.40;3.00;;;;;-1.45;56.98;100615.06;5136310;27;8898;-63
2022/03/08 05:52:11;;;;;;;;;1.00;1.00;;;;;-1.45;56.89;100612.47;5116431;27;8978;-64
2022/03/08 05:54:38;;;;;;;;;4.00;3.60;;;;;-1.43;57.10;100618.50;5115040;28;8853;-65
2022/03/08 05:57:06;;;;;;;;;3.00;3.00;;;;;-1.41;57.09;100611.50;5114658;28;8924;-64
2022/03/08 05:59:34;;;;;;;;;3.40;3.40;;;;;-1.43;57.17;100614.16;5114638;28;8958;-64
2022/03/08 06:02:02;;;;;;;;;2.20;2.20;;;;;-1.43;57.07;100621.09;5114572;28;8854;-64
2022/03/08 06:04:30;;;;;;;;;3.00;1.80;;;;;-1.43;56.55;100619.38;5114929;28;8844;-64
2022/03/08 06:06:57;;;;;;;;;2.20;2.20;;;;;-1.44;56.72;100620.22;5114493;28;8847;-64
2022/03/08 06:09:29;;;;;;;;;2.20;1.00;;;;;-1.43;56.76;100621.09;5114114;28;8876;-64
2022/03/08 06:11:56;;;;;;;;;3.40;3.20;;;;;-1.44;57.15;100622.00;5114741;28;8832;-64
2022/03/08 06:14:24;;;;;;;;;3.80;3.80;;;;;-1.45;56.92;100625.50;5115634;28;8831;-66
2022/03/08 06:16:52;;;;;;;;;3.20;3.00;;;;;-1.46;56.90;100618.56;5113056;28;8824;-64
2022/03/08 06:19:20;;;;;;;;;4.40;3.60;;;;;-1.46;57.43;100631.63;5114209;28;8823;-68
2022/03/08 06:21:47;;;;;;;;;6.80;6.00;;;;;-1.46;56.86;100631.63;5114353;28;8863;-64
2022/03/08 06:24:15;;;;;;;;;6.40;4.00;;;;;-1.44;57.02;100624.63;5115199;28;8842;-64
2022/03/08 06:26:43;;;;;;;;;3.00;3.00;;;;;-1.43;57.24;100628.94;5113077;28;8989;-64
2022/03/08 06:29:12;;;;;;;;;3.00;3.00;;;;;-1.39;57.13;100630.59;5112347;28;8820;-64
2022/03/08 06:31:40;;;;;;;;;0.00;0.00;;;;;-1.37;57.15;100632.28;5112646;28;8859;-64
2022/03/08 06:34:08;;;;;;;;;3.00;3.00;;;;;-1.33;56.68;100633.94;5112920;28;8831;-64
2022/03/08 06:36:36;;;;;;;;;4.00;4.00;;;;;-1.26;56.80;100638.16;5113265;28;8835;-64
2022/03/08 06:39:04;;;;;;;;;4.00;4.00;;;;;-1.20;56.33;100648.47;5112730;28;8847;-64
2022/03/08 06:41:32;;;;;;;;;2.80;2.80;;;;;-1.13;56.37;100649.19;5112106;28;8912;-64
2022/03/08 06:44:02;;;;;;;;;4.00;4.00;;;;;-1.07;56.44;100642.06;5112355;28;8847;-64
2022/03/08 06:46:30;;;;;;;;;7.40;6.20;;;;;-1.00;56.16;100651.50;5111491;28;8916;-65
2022/03/08 06:48:57;;;;;;;;;4.60;3.60;;;;;-0.94;55.94;100650.50;5111196;28;8852;-64
2022/03/08 06:51:25;;;;;;;;;4.80;3.60;;;;;-0.89;56.88;100649.53;5110756;28;8863;-64
2022/03/08 06:53:53;;;;;;;;;1.00;1.00;;;;;-0.83;56.20;100657.22;5111481;28;8973;-64
2022/03/08 06:56:22;;;;;;;;;3.60;3.40;;;;;-0.77;56.30;100653.63;5110736;28;8848;-64
2022/03/08 06:58:50;;;;;;;;;2.60;2.40;;;;;-0.69;55.90;100649.06;5110500;28;9323;-64
2022/03/08 07:01:17;;;;;;;;;1.40;1.40;;;;;-0.63;55.95;100643.72;5110214;28;8827;-66
2022/03/08 07:03:46;;;;;;;;;6.00;4.00;;;;;-0.57;55.79;100649.66;5109775;28;8831;-64
2022/03/08 07:06:13;;;;;;;;;3.00;3.00;;;;;-0.52;56.10;100650.41;5111149;28;9539;-64
2022/03/08 07:08:41;;;;;;;;;0.80;0.00;;;;;-0.46;56.11;100650.22;5110188;28;8855;-66
2022/03/08 07:11:10;;;;;;;;;5.40;5.20;;;;;-0.36;55.47;100657.00;5112094;28;8840;-64
2022/03/08 07:13:38;;;;;;;;;9.00;7.00;;;;;-0.27;55.78;100658.50;5112947;28;8945;-64
2022/03/08 07:16:06;;;;;;;;;6.60;6.00;;;;;-0.22;55.79;100657.50;5114902;28;8924;-64
2022/03/08 07:18:34;;;;;;;;;4.80;4.80;;;;;-0.11;55.22;100660.69;5116620;28;8831;-64
2022/03/08 07:21:03;;;;;;;;;6.60;6.60;;;;;-0.03;54.90;100657.00;5114667;28;8960;-64
2022/03/08 07:23:32;;;;;;;;;6.60;6.40;;;;;0.07;55.28;100641.91;5114627;28;9493;-64
2022/03/08 07:26:00;;;;;;;;;3.60;3.60;;;;;0.22;54.57;100644.09;5113456;28;8985;-64
2022/03/08 07:28:28;;;;;;;;;4.00;4.00;;;;;0.36;54.76;100649.84;5114455;28;8858;-65
2022/03/08 07:31:01;;;;;;;;;3.60;3.60;;;;;0.47;54.71;100643.41;5115457;28;9580;-64
2022/03/08 07:33:31;;;;;;;;;3.20;3.20;;;;;0.58;54.19;100638.75;5116582;28;8856;-64
2022/03/08 07:35:59;;;;;;;;;6.40;6.40;;;;;0.74;54.20;100639.16;5115542;28;8831;-65
2022/03/08 07:38:27;;;;;;;;;4.40;4.00;;;;;0.92;53.76;100643.88;5115080;28;9505;-64
2022/03/08 07:41:01;;;;;;;;;4.40;4.40;;;;;1.26;53.71;100639.31;5116113;28;8982;-64
2022/03/08 07:43:29;;;;;;;;;8.20;6.20;;;;;1.67;53.80;100631.84;5115365;28;8824;-64
2022/03/08 07:45:57;;;;;;;;;6.20;4.40;;;;;2.19;52.73;100631.78;5115718;27;8828;-69
2022/03/08 07:48:25;;;;;;;;;6.40;6.20;;;;;2.72;52.84;100627.25;5127242;27;8802;-64
2022/03/08 07:50:53;;;;;;;;;3.60;3.20;;;;;3.20;52.51;100617.50;5135681;27;8849;-64
2022/03/08 07:53:21;;;;;;;;;6.00;6.00;;;;;3.63;51.99;100615.72;5136139;27;8875;-64
2022/03/08 07:55:49;;;;;;;;;6.40;6.20;;;;;3.97;51.51;100619.53;5135658;27;8843;-64
2022/03/08 07:58:20;;;;;;;;;4.00;3.60;;;;;4.22;50.85;100616.72;5135269;27;8936;-65
2022/03/08 08:00:48;;;;;;;;;6.40;5.60;;;;;4.41;50.57;100613.19;5134158;27;8941;-64
2022/03/08 08:03:16;;;;;;;;;8.40;7.00;;;;;4.62;50.27;100614.03;5136005;27;8822;-65
2022/03/08 08:05:44;;;;;;;;;5.20;3.40;;;;;4.84;50.50;100612.13;5135493;27;8834;-65
2022/03/08 08:08:12;;;;;;;;;8.20;7.00;;;;;5.09;50.33;100605.66;5134566;27;8933;-65
2022/03/08 08:10:40;;;;;;;;;7.80;6.00;;;;;5.37;49.83;100607.84;5134558;27;8837;-65
2022/03/08 08:13:08;;;;;;;;;3.00;3.00;;;;;5.67;49.43;100609.00;5134690;27;9537;-65
2022/03/08 08:15:36;;;;;;;;;6.00;6.00;;;;;5.92;49.08;100605.09;5135001;27;8971;-65
2022/03/08 08:18:10;;;;;;;;;7.40;7.40;;;;;6.18;49.00;100603.78;5134647;27;8837;-65
2022/03/08 08:20:37;;;;;;;;;7.00;6.20;;;;;6.39;48.51;100602.69;5134785;27;8835;-65
2022/03/08 08:23:05;;;;;;;;;6.40;6.00;;;;;6.53;48.85;100605.47;5132652;27;8858;-65
2022/03/08 08:25:33;;;;;;;;;9.00;9.00;;;;;6.62;48.58;100604.97;5133102;27;8870;-65
2022/03/08 08:28:01;;;;;;;;;10.40;7.40;;;;;6.67;48.50;100602.94;5133749;27;8834;-65
2022/03/08 08:30:29;;;;;;;;;6.00;6.00;;;;;6.65;48.59;100605.66;5132946;27;8948;-65
2022/03/08 08:32:56;;;;;;;;;9.20;8.60;;;;;6.62;48.86;100599.69;5133405;27;8818;-65
2022/03/08 08:35:24;;;;;;;;;6.40;6.40;;;;;6.61;49.10;100596.16;5132153;27;8846;-65
2022/03/08 08:37:52;;;;;;;;;11.20;9.80;;;;;6.60;48.45;100593.63;5131697;27;8825;-65
2022/03/08 08:40:20;;;;;;;;;6.40;6.40;;;;;6.62;48.65;100597.03;5132336;27;8825;-65
2022/03/08 08:42:47;;;;;;;;;7.80;6.60;;;;;6.68;48.81;100591.44;5131737;27;8981;-65
2022/03/08 08:45:15;;;;;;;;;6.60;5.60;;;;;6.86;48.48;100593.06;5132344;27;8825;-65
2022/03/08 08:47:43;;;;;;;;;9.00;9.00;;;;;7.14;48.07;100593.28;5132398;27;8838;-65
2022/03/08 08:50:11;;;;;;;;;9.00;7.00;;;;;7.46;47.77;100585.25;5132462;27;9571;-65
2022/03/08 08:52:39;;;;;;;;;6.80;6.80;;;;;7.82;47.00;100581.31;5132212;27;8853;-65
2022/03/08 08:55:06;;;;;;;;;1.00;1.00;;;;;8.15;46.84;100579.34;5132456;27;8983;-65
2022/03/08 08:57:37;;;;;;;;;6.00;5.20;;;;;8.45;46.46;100574.88;5131298;27;9588;-65
2022/03/08 09:00:04;;;;;;;;;9.40;9.40;;;;;8.75;46.07;100574.81;5131214;27;8838;-65
2022/03/08 09:02:32;;;;;;;;;7.00;7.00;;;;;9.03;45.86;100572.97;5131516;27;8825;-65
2022/03/08 09:05:00;;;;;;;;;2.00;1.60;;;;;9.11;45.38;100560.06;5131206;27;8844;-65
2022/03/08 09:07:28;;;;;;;;;5.60;4.00;;;;;9.01;45.07;100558.94;5133650;27;9175;-65
2022/03/08 09:09:56;;;;;;;;;5.80;5.80;;;;;8.87;44.84;100558.94;5131473;27;9531;-65
2022/03/08 09:12:24;;;;;;;;;4.80;4.80;;;;;8.77;44.83;100559.63;5130076;27;8841;-65
2022/03/08 09:14:52;;;;;;;;;6.20;6.20;;;;;8.78;45.03;100564.84;5130713;27;9502;-65
2022/03/08 09:17:19;;;;;;;;;3.40;3.40;;;;;8.78;44.59;100559.53;5132797;27;8837;-65
2022/03/08 09:19:47;;;;;;;;;7.40;7.40;;;;;8.75;44.45;100557.06;5131136;27;8872;-65
2022/03/08 09:22:15;;;;;;;;;3.20;3.20;;;;;8.69;44.07;100545.97;5131796;27;8879;-65
2022/03/08 09:24:43;;;;;;;;;3.00;3.00;;;;;8.64;43.99;100554.22;5131387;27;8849;-65
2022/03/08 09:27:11;;;;;;;;;6.00;5.20;;;;;8.63;44.18;100541.91;5132289;27;8829;-65
2022/03/08 09:29:42;;;;;;;;;7.20;5.20;;;;;8.66;44.04;100547.00;5133309;27;8825;-66
2022/03/08 09:32:10;;;;;;;;;7.80;7.00;;;;;8.62;43.65;100545.50;5134218;27;8837;-65
2022/03/08 09:34:39;;;;;;;;;5.60;5.60;;;;;8.60;43.37;100547.38;5133609;27;8922;-65
2022/03/08 09:37:07;;;;;;;;;6.00;4.40;;;;;8.60;43.13;100535.94;5134070;27;8968;-65
2022/03/08 09:39:36;;;;;;;;;4.40;3.20;;;;;8.59;43.10;100532.41;5132754;27;8960;-65
2022/03/08 09:42:04;;;;;;;;;4.00;4.00;;;;;8.64;42.69;100546.25;5132636;27;8860;-65
2022/03/08 09:44:32;;;;;;;;;6.40;6.20;;;;;8.71;42.74;100538.75;5133659;27;8868;-65
2022/03/08 09:47:00;;;;;;;;;5.20;3.80;;;;;8.79;42.35;100541.78;5129722;27;8875;-65
2022/03/08 09:49:28;;;;;;;;;8.20;7.40;;;;;8.85;42.28;100539.63;5131802;27;8845;-64
2022/03/08 09:51:56;;;;;;;;;5.60;5.20;;;;;8.89;42.00;100538.44;5130986;27;8866;-65
2022/03/08 09:54:23;;;;;;;;;3.60;3.60;;;;;8.92;41.53;100532.97;5130588;27;8829;-65
2022/03/08 09:56:51;;;;;;;;;3.20;3.00;;;;;9.00;41.80;100525.38;5131243;27;8829;-65
2022/03/08 09:59:19;;;;;;;;;3.60;3.60;;;;;9.07;41.02;100521.38;5131936;27;8925;-65
2022/03/08 10:01:46;;;;;;;;;4.80;4.80;;;;;9.16;41.10;100514.59;5132517;27;8841;-65
2022/03/08 10:04:15;;;;;;;;;4.40;4.40;;;;;9.35;40.63;100515.09;5132052;27;8837;-64
2022/03/08 10:07:00;;;;;;;;;7.20;5.60;;;;;9.66;40.71;100510.31;5132730;27;8899;-65
2022/03/08 10:09:28;;;;;;;;;5.80;5.80;;;;;9.90;40.08;100514.00;5132874;27;8844;-65
2022/03/08 10:11:56;;;;;;;;;5.60;4.80;;;;;10.28;40.19;100506.94;5133415;27;8846;-65
2022/03/08 10:14:26;;;;;;;;;7.00;7.00;;;;;10.75;39.54;100498.25;5131199;27;8861;-65
2022/03/08 10:16:54;;;;;;;;;3.75;3.75;;;;;11.41;38.44;100488.88;5130633;27;8852;-65
2022/03/08 10:19:21;;;;;;;;;0.00;0.00;;;;;12.35;37.05;100494.88;5132064;27;9618;-65
2022/03/08 10:21:51;;;;;;;;;3.25;3.00;;;;;13.37;36.18;100475.84;5128946;27;8854;-65
2022/03/08 10:24:19;;;;;;;;;6.75;6.50;;;;;14.29;34.20;100463.50;5128347;27;8902;-65
2022/03/08 10:26:47;;;;;;;;;5.00;5.00;;;;;15.17;34.26;100469.88;5130718;27;8830;-65
2022/03/08 10:29:15;;;;;;;;;5.00;3.25;;;;;16.02;32.88;100458.34;5130413;27;8968;-65
2022/03/08 10:31:43;;;;;;;;;6.00;6.00;;;;;16.70;32.24;100450.84;5128439;27;9287;-65
2022/03/08 10:34:16;;;;;;;;;4.00;4.00;;;;;17.46;31.80;100445.84;5130127;27;8837;-65
2022/03/08 10:36:43;;;;;;;;;4.50;4.50;;;;;17.92;31.06;100434.81;5129792;27;9638;-63
2022/03/08 10:39:15;;;;;;;;;8.25;7.50;;;;;18.38;30.45;100439.06;5130600;27;8966;-64
2022/03/08 10:41:43;;;;;;;;;6.00;6.00;;;;;18.75;30.90;100416.13;5129075;27;8837;-63
2022/03/08 10:44:11;;;;;;;;;6.25;6.25;;;;;19.21;30.06;100422.91;5129502;27;8973;-63
2022/03/08 10:46:39;;;;;;;;;6.00;6.00;;;;;19.31;30.03;100424.47;5130849;27;8837;-63
2022/03/08 10:49:07;;;;;;;;;0.00;0.00;;;;;19.51;29.91;100417.72;5128823;27;8837;-64
2022/03/08 10:51:34;;;;;;;;;6.60;6.40;;;;;19.94;29.41;100420.09;5128709;27;8849;-63
2022/03/08 10:54:02;;;;;;;;;5.60;5.60;;;;;20.40;28.51;100413.97;5128922;27;8984;-63
2022/03/08 10:56:30;;;;;;;;;4.00;4.00;;;;;20.72;28.60;100402.22;5130060;27;8996;-63
2022/03/08 10:58:58;;;;;;;;;5.20;3.80;;;;;20.91;28.07;100394.53;5131258;27;8813;-63
2022/03/08 11:01:26;;;;;;;;;3.80;3.00;;;;;20.99;26.10;100392.66;5130826;27;8849;-63
2022/03/08 11:03:54;;;;;;;;;5.60;4.40;;;;;20.89;27.43;100393.88;5129940;27;8842;-63
2022/03/08 11:06:22;;;;;;;;;9.60;7.40;;;;;20.88;27.07;100384.06;5129906;27;8968;-63
2022/03/08 11:08:50;;;;;;;;;4.00;4.00;;;;;20.74;27.17;100384.78;5130340;27;8851;-63
2022/03/08 11:11:18;;;;;;;;;3.40;3.00;;;;;20.73;27.22;100383.91;5129710;27;8960;-63
2022/03/08 11:13:46;;;;;;;;;2.20;1.80;;;;;21.02;27.26;100389.56;5129007;27;8837;-63
2022/03/08 11:16:14;;;;;;;;;6.00;4.40;;;;;21.39;26.97;100383.41;5128535;27;8865;-63
2022/03/08 11:18:42;;;;;;;;;6.00;4.40;;;;;21.52;26.77;100381.81;5130899;27;8841;-64
2022/03/08 11:21:09;;;;;;;;;6.00;5.20;;;;;21.43;26.54;100371.19;5129345;27;8988;-64
2022/03/08 11:23:37;;;;;;;;;5.40;5.20;;;;;21.35;27.16;100374.78;5130825;27;8992;-64
2022/03/08 11:26:08;;;;;;;;;6.40;6.00;;;;;21.52;26.80;100364.69;5133538;27;8830;-64
2022/03/08 11:28:36;;;;;;;;;6.00;5.60;;;;;21.52;26.30;100365.53;5130086;27;8842;-64
2022/03/08 11:31:03;;;;;;;;;7.00;7.00;;;;;21.53;25.96;100363.66;5128533;27;9266;-64
2022/03/08 11:33:31;;;;;;;;;4.00;3.60;;;;;21.42;26.55;100366.78;5130739;27;9139;-64
2022/03/08 11:35:59;;;;;;;;;6.20;6.00;;;;;21.49;26.15;100360.47;5129568;27;8844;-65
2022/03/08 11:38:27;;;;;;;;;7.00;7.00;;;;;21.81;26.24;100354.81;5130639;27;8918;-64
2022/03/08 11:40:56;;;;;;;;;4.60;4.00;;;;;22.10;26.13;100360.25;5129124;27;8830;-64